Time;durP1;ratioP1;P1;durP2;ratioP2;P2;SDS_P1;SDS_P2;PMS_P1;PMS_P2;Temp;Humidity;BMP_temperature;BMP_pressure;BME280_temperature;BME280_humidity;BME280_pressure;Samples;Min_cycle;Max_cycle;Signal;HPM_P1;HPM_P2
2024/02/11 00:03:01;;;;;;;9.32;6.07;;;;;;;;;;6259961;28;24432;-83
2024/02/11 00:06:04;;;;;;;10.18;5.75;;;;;;;;;;6265207;28;24447;-84
2024/02/11 00:09:05;;;;;;;11.27;6.05;;;;;;;;;;6264813;28;24443;-82
2024/02/11 00:12:08;;;;;;;10.27;5.78;;;;;;;;;;6268278;28;24876;-82
2024/02/11 00:15:11;;;;;;;9.23;5.60;;;;;;;;;;6267457;28;24430;-82
2024/02/11 00:18:12;;;;;;;15.73;6.00;;;;;;;;;;6265869;28;24485;-83
2024/02/11 00:21:14;;;;;;;10.02;5.30;;;;;;;;;;6266333;28;24423;-82
2024/02/11 00:24:15;;;;;;;8.48;5.72;;;;;;;;;;6259061;28;24423;-82
2024/02/11 00:27:17;;;;;;;11.20;5.75;;;;;;;;;;6265192;28;24426;-84
2024/02/11 00:30:22;;;;;;;12.05;5.50;;;;;;;;;;6264662;28;24447;-81
2024/02/11 00:33:24;;;;;;;13.45;5.93;;;;;;;;;;6265555;28;24631;-83
2024/02/11 00:36:25;;;;;;;11.50;6.20;;;;;;;;;;6264009;28;24448;-82
2024/02/11 00:39:27;;;;;;;13.87;6.63;;;;;;;;;;6263034;28;24438;-80
2024/02/11 00:42:28;;;;;;;13.95;6.03;;;;;;;;;;6264601;28;24435;-83
2024/02/11 00:45:31;;;;;;;14.00;6.18;;;;;;;;;;6265083;28;24424;-84
2024/02/11 00:48:32;;;;;;;15.13;6.15;;;;;;;;;;6266528;28;24408;-84
2024/02/11 00:51:34;;;;;;;11.25;6.15;;;;;;;;;;6266498;28;24631;-83
2024/02/11 00:54:37;;;;;;;12.90;5.88;;;;;;;;;;6263746;28;24429;-82
2024/02/11 00:57:39;;;;;;;12.50;5.78;;;;;;;;;;6261087;28;24430;-84
2024/02/11 01:00:44;;;;;;;14.07;5.82;;;;;;;;;;6264020;28;24465;-82
2024/02/11 01:03:45;;;;;;;11.80;5.53;;;;;;;;;;6261893;28;24615;-82
2024/02/11 01:06:47;;;;;;;12.43;5.53;;;;;;;;;;6262765;28;24432;-81
2024/02/11 01:09:48;;;;;;;12.40;5.68;;;;;;;;;;6270002;28;24438;-83
2024/02/11 01:12:50;;;;;;;13.77;5.70;;;;;;;;;;6270204;28;24442;-82
2024/02/11 01:15:53;;;;;;;14.02;6.18;;;;;;;;;;6268833;28;24492;-82
2024/02/11 01:18:54;;;;;;;11.35;5.68;;;;;;;;;;6268741;28;24416;-82
2024/02/11 01:21:56;;;;;;;12.75;5.75;;;;;;;;;;6268172;28;24705;-81
2024/02/11 01:24:57;;;;;;;10.65;5.43;;;;;;;;;;6268127;28;24431;-83
2024/02/11 01:27:59;;;;;;;11.80;5.18;;;;;;;;;;6268361;28;24815;-81
2024/02/11 01:31:01;;;;;;;9.53;5.17;;;;;;;;;;6267337;28;24539;-82
2024/02/11 01:34:05;;;;;;;8.30;4.82;;;;;;;;;;6266964;28;24840;-81
2024/02/11 01:37:07;;;;;;;10.83;5.30;;;;;;;;;;6265311;28;24775;-82
2024/02/11 01:40:09;;;;;;;9.45;4.82;;;;;;;;;;6267812;28;24980;-81
2024/02/11 01:43:11;;;;;;;48.67;30.88;;;;;;;;;;6267045;28;24427;-85
2024/02/11 01:46:14;;;;;;;58.95;33.38;;;;;;;;;;6267644;28;24438;-83
2024/02/11 01:49:15;;;;;;;53.58;30.23;;;;;;;;;;6269206;28;24408;-82
2024/02/11 01:52:17;;;;;;;52.22;27.05;;;;;;;;;;6267593;28;24422;-83
2024/02/11 01:55:19;;;;;;;133.38;71.85;;;;;;;;;;6267319;28;24415;-83
2024/02/11 01:58:20;;;;;;;48.70;27.17;;;;;;;;;;6269541;28;24418;-82
2024/02/11 02:01:25;;;;;;;21.55;11.55;;;;;;;;;;6265135;28;24404;-81
2024/02/11 02:04:27;;;;;;;11.15;6.80;;;;;;;;;;6266631;28;24669;-81
2024/02/11 02:07:28;;;;;;;9.25;5.22;;;;;;;;;;6265516;28;24832;-82
2024/02/11 02:10:30;;;;;;;7.40;4.63;;;;;;;;;;6266175;28;24423;-82
2024/02/11 02:13:31;;;;;;;6.60;4.60;;;;;;;;;;6266220;28;24416;-82
2024/02/11 02:16:34;;;;;;;7.00;4.43;;;;;;;;;;6264771;28;24416;-82
2024/02/11 02:19:35;;;;;;;6.05;4.13;;;;;;;;;;6267067;28;24412;-83
2024/02/11 02:22:38;;;;;;;8.55;4.10;;;;;;;;;;6267674;28;24806;-83
2024/02/11 02:25:40;;;;;;;6.10;3.63;;;;;;;;;;6269550;28;24616;-82
2024/02/11 02:28:41;;;;;;;6.20;3.47;;;;;;;;;;6268196;28;24642;-83
2024/02/11 02:31:43;;;;;;;6.28;3.72;;;;;;;;;;6265218;28;24423;-81
2024/02/11 02:34:46;;;;;;;6.03;3.60;;;;;;;;;;6267431;28;24415;-82
2024/02/11 02:37:53;;;;;;;6.20;3.22;;;;;;;;;;6262661;28;24423;-81
2024/02/11 02:40:54;;;;;;;5.40;3.33;;;;;;;;;;6266782;28;24856;-82
2024/02/11 02:43:56;;;;;;;6.57;3.57;;;;;;;;;;6269351;28;24423;-83
2024/02/11 02:46:57;;;;;;;5.07;2.83;;;;;;;;;;6265837;28;24948;-82
2024/02/11 02:49:59;;;;;;;6.10;3.10;;;;;;;;;;6265308;28;24431;-82
2024/02/11 02:53:01;;;;;;;5.97;2.80;;;;;;;;;;6268622;28;24442;-84
2024/02/11 02:56:03;;;;;;;5.50;2.80;;;;;;;;;;6267743;28;24431;-82
2024/02/11 02:59:08;;;;;;;3.83;2.50;;;;;;;;;;6269484;28;24423;-83
2024/02/11 03:02:12;;;;;;;3.88;2.42;;;;;;;;;;6267626;28;24857;-81
2024/02/11 03:05:13;;;;;;;6.30;2.78;;;;;;;;;;6264327;28;24510;-83
2024/02/11 03:08:16;;;;;;;4.15;2.58;;;;;;;;;;6268934;28;24430;-84
2024/02/11 03:11:18;;;;;;;3.60;2.33;;;;;;;;;;6266456;28;24423;-83
2024/02/11 03:14:19;;;;;;;3.42;2.20;;;;;;;;;;6268051;28;24427;-81
2024/02/11 03:17:21;;;;;;;3.30;2.25;;;;;;;;;;6267512;28;24423;-82
2024/02/11 03:20:22;;;;;;;3.88;2.00;;;;;;;;;;6264169;28;24431;-82
2024/02/11 03:23:25;;;;;;;4.55;2.10;;;;;;;;;;6262914;28;24422;-81
2024/02/11 03:26:27;;;;;;;3.80;1.77;;;;;;;;;;6266085;28;24424;-82
2024/02/11 03:29:28;;;;;;;3.80;1.95;;;;;;;;;;6262753;28;24715;-81
2024/02/11 03:32:29;;;;;;;3.40;2.35;;;;;;;;;;6265551;28;24473;-80
2024/02/11 03:35:31;;;;;;;4.35;3.35;;;;;;;;;;6263201;28;24431;-82
2024/02/11 03:38:34;;;;;;;6.65;4.47;;;;;;;;;;6264648;28;24419;-81
2024/02/11 03:41:35;;;;;;;6.70;4.68;;;;;;;;;;6265954;28;24422;-81
2024/02/11 03:44:37;;;;;;;7.32;4.90;;;;;;;;;;6265139;28;24424;-82
2024/02/11 03:47:39;;;;;;;6.47;4.50;;;;;;;;;;6262753;28;24493;-81
2024/02/11 03:50:40;;;;;;;5.90;4.47;;;;;;;;;;6265352;28;24689;-82
2024/02/11 03:53:44;;;;;;;5.67;4.00;;;;;;;;;;6264628;28;24461;-82
2024/02/11 03:56:45;;;;;;;5.90;4.67;;;;;;;;;;6263958;28;24646;-82
2024/02/11 03:59:47;;;;;;;6.88;4.82;;;;;;;;;;6266155;28;24773;-81
2024/02/11 04:02:48;;;;;;;6.97;5.05;;;;;;;;;;6266367;28;24423;-81
2024/02/11 04:05:52;;;;;;;6.13;4.50;;;;;;;;;;6264631;28;24423;-83
2024/02/11 04:08:55;;;;;;;6.50;4.65;;;;;;;;;;6261543;28;24628;-82
2024/02/11 04:11:58;;;;;;;5.40;4.30;;;;;;;;;;6262017;28;24434;-82
2024/02/11 04:15:01;;;;;;;5.17;3.87;;;;;;;;;;6265185;28;27083;-81
2024/02/11 04:18:07;;;;;;;4.93;4.05;;;;;;;;;;6264358;28;24478;-82
2024/02/11 04:21:10;;;;;;;5.53;3.80;;;;;;;;;;6266221;28;24667;-81
2024/02/11 04:24:15;;;;;;;5.32;3.95;;;;;;;;;;6263811;28;24431;-82
2024/02/11 04:27:18;;;;;;;5.07;3.85;;;;;;;;;;6263831;28;24418;-82
2024/02/11 04:30:20;;;;;;;4.95;3.78;;;;;;;;;;6263979;28;25068;-82
2024/02/11 04:33:22;;;;;;;5.30;3.85;;;;;;;;;;6265461;28;24446;-83
2024/02/11 04:36:24;;;;;;;5.03;4.00;;;;;;;;;;6263095;28;24534;-84
2024/02/11 04:39:27;;;;;;;5.40;4.03;;;;;;;;;;6264500;28;24508;-82
2024/02/11 04:42:30;;;;;;;5.22;4.38;;;;;;;;;;6267428;28;24419;-81
2024/02/11 04:45:31;;;;;;;5.30;4.20;;;;;;;;;;6266711;28;24422;-82
2024/02/11 04:48:33;;;;;;;5.28;3.92;;;;;;;;;;6270381;28;24443;-82
2024/02/11 04:51:34;;;;;;;5.80;4.20;;;;;;;;;;6266117;28;24802;-83
2024/02/11 04:54:37;;;;;;;6.60;4.90;;;;;;;;;;6265527;28;25292;-82
2024/02/11 04:57:39;;;;;;;6.07;5.20;;;;;;;;;;6266042;28;24430;-81
2024/02/11 05:00:41;;;;;;;7.13;5.28;;;;;;;;;;6266300;28;24853;-82
2024/02/11 05:03:44;;;;;;;6.35;4.88;;;;;;;;;;6268964;28;24818;-81
2024/02/11 05:06:46;;;;;;;6.82;5.65;;;;;;;;;;6264839;28;24449;-81
2024/02/11 05:09:49;;;;;;;7.10;5.38;;;;;;;;;;6265985;28;24423;-84
2024/02/11 05:12:51;;;;;;;7.20;5.60;;;;;;;;;;6265694;28;24536;-80
2024/02/11 05:15:53;;;;;;;5.88;5.28;;;;;;;;;;6265547;28;24419;-83
2024/02/11 05:18:54;;;;;;;6.80;5.80;;;;;;;;;;6265751;28;24783;-83
2024/02/11 05:21:56;;;;;;;6.38;5.50;;;;;;;;;;6268209;28;24848;-81
2024/02/11 05:24:59;;;;;;;6.25;5.32;;;;;;;;;;6265875;28;24478;-81
2024/02/11 05:28:02;;;;;;;5.97;5.20;;;;;;;;;;6267053;28;24876;-82
2024/02/11 05:31:04;;;;;;;6.50;5.38;;;;;;;;;;6266824;28;24867;-81
2024/02/11 05:34:06;;;;;;;10.07;6.95;;;;;;;;;;6267012;28;24427;-83
2024/02/11 05:37:09;;;;;;;10.17;6.90;;;;;;;;;;6267862;28;24627;-82
2024/02/11 05:40:12;;;;;;;9.50;6.70;;;;;;;;;;6268033;28;24633;-82
2024/02/11 05:43:15;;;;;;;10.13;6.78;;;;;;;;;;6265113;28;24419;-82
2024/02/11 05:46:16;;;;;;;10.93;7.18;;;;;;;;;;6267931;28;24844;-82
2024/02/11 05:49:19;;;;;;;12.45;8.20;;;;;;;;;;6268730;28;24412;-83
2024/02/11 05:52:21;;;;;;;12.23;8.18;;;;;;;;;;6270395;28;24484;-82
2024/02/11 05:55:26;;;;;;;11.80;8.03;;;;;;;;;;6266534;28;24787;-83
2024/02/11 05:58:27;;;;;;;11.77;8.00;;;;;;;;;;6270469;28;24471;-82
2024/02/11 06:01:29;;;;;;;11.80;7.93;;;;;;;;;;6265448;28;24411;-82
2024/02/11 06:04:31;;;;;;;10.15;7.13;;;;;;;;;;6265143;28;24429;-83
2024/02/11 06:07:33;;;;;;;11.77;7.15;;;;;;;;;;6267024;28;24419;-82
2024/02/11 06:10:36;;;;;;;9.63;6.88;;;;;;;;;;6264013;28;24430;-81
2024/02/11 06:13:39;;;;;;;10.68;6.95;;;;;;;;;;6266667;28;24833;-82
2024/02/11 06:16:40;;;;;;;9.30;6.47;;;;;;;;;;6264940;28;24418;-82
2024/02/11 06:19:42;;;;;;;10.88;6.72;;;;;;;;;;6268432;28;24412;-82
2024/02/11 06:22:43;;;;;;;10.25;6.82;;;;;;;;;;6266671;28;24415;-82
2024/02/11 06:25:46;;;;;;;10.07;6.65;;;;;;;;;;6265382;28;24611;-82
2024/02/11 06:28:48;;;;;;;11.52;7.25;;;;;;;;;;6264063;28;24415;-81
2024/02/11 06:31:50;;;;;;;12.23;7.15;;;;;;;;;;6268436;28;24435;-83
2024/02/11 06:34:52;;;;;;;11.50;7.28;;;;;;;;;;6267637;28;24876;-84
2024/02/11 06:37:54;;;;;;;12.57;8.23;;;;;;;;;;6266348;28;24611;-83
2024/02/11 06:40:57;;;;;;;10.90;7.18;;;;;;;;;;6265018;28;24426;-83
2024/02/11 06:44:03;;;;;;;12.52;8.38;;;;;;;;;;6264525;28;24423;-82
2024/02/11 06:47:05;;;;;;;11.80;8.15;;;;;;;;;;6265820;28;24806;-82
2024/02/11 06:50:07;;;;;;;13.27;8.03;;;;;;;;;;6265968;28;24430;-83
2024/02/11 06:53:09;;;;;;;11.88;7.85;;;;;;;;;;6266490;28;24606;-82
2024/02/11 06:56:12;;;;;;;13.10;8.45;;;;;;;;;;6265740;28;24427;-82
2024/02/11 06:59:14;;;;;;;12.35;8.10;;;;;;;;;;6268826;28;24470;-82
2024/02/11 07:02:15;;;;;;;12.13;8.40;;;;;;;;;;6266111;28;24818;-84
2024/02/11 07:05:17;;;;;;;12.57;8.52;;;;;;;;;;6262228;28;24413;-82
2024/02/11 07:08:21;;;;;;;13.73;8.80;;;;;;;;;;6263419;28;24419;-82
2024/02/11 07:11:23;;;;;;;14.30;9.02;;;;;;;;;;6264513;28;24701;-81
2024/02/11 07:14:26;;;;;;;14.35;9.00;;;;;;;;;;6268523;28;24970;-82
2024/02/11 07:17:30;;;;;;;13.52;8.82;;;;;;;;;;6263697;28;24445;-82
2024/02/11 07:20:31;;;;;;;13.57;9.07;;;;;;;;;;6265006;28;24442;-82
2024/02/11 07:23:33;;;;;;;13.85;8.70;;;;;;;;;;6264941;28;24427;-82
2024/02/11 07:26:36;;;;;;;12.85;8.38;;;;;;;;;;6265716;28;24543;-83
2024/02/11 07:29:38;;;;;;;11.70;7.97;;;;;;;;;;6264638;28;24619;-83
2024/02/11 07:32:41;;;;;;;12.00;7.78;;;;;;;;;;6268726;28;24439;-83
2024/02/11 07:35:43;;;;;;;11.88;8.00;;;;;;;;;;6265756;28;25063;-82
2024/02/11 07:38:46;;;;;;;13.23;9.07;;;;;;;;;;6265296;28;24419;-82
2024/02/11 07:41:49;;;;;;;12.25;8.35;;;;;;;;;;6264767;28;24469;-82
2024/02/11 07:44:50;;;;;;;14.93;9.45;;;;;;;;;;6264002;28;24535;-81
2024/02/11 07:47:52;;;;;;;14.07;9.00;;;;;;;;;;6268610;28;24415;-82
2024/02/11 07:50:53;;;;;;;13.93;9.32;;;;;;;;;;6264731;28;24850;-83
2024/02/11 07:53:54;;;;;;;14.65;9.60;;;;;;;;;;6264303;28;24420;-82
2024/02/11 07:56:57;;;;;;;15.23;9.43;;;;;;;;;;6265422;28;24488;-83
2024/02/11 07:59:59;;;;;;;14.95;9.50;;;;;;;;;;6264891;28;24442;-82
2024/02/11 08:03:00;;;;;;;14.80;9.47;;;;;;;;;;6266344;28;24431;-83
2024/02/11 08:06:02;;;;;;;16.83;10.50;;;;;;;;;;6264114;28;24622;-84
2024/02/11 08:09:09;;;;;;;16.10;10.52;;;;;;;;;;6263824;28;24447;-82
2024/02/11 08:12:11;;;;;;;16.07;10.50;;;;;;;;;;6262793;28;24504;-82
2024/02/11 08:15:14;;;;;;;15.65;10.00;;;;;;;;;;6263325;28;24436;-82
2024/02/11 08:18:17;;;;;;;14.63;9.30;;;;;;;;;;6269606;28;24518;-81
2024/02/11 08:21:19;;;;;;;13.82;9.25;;;;;;;;;;6268649;28;24592;-81
2024/02/11 08:24:20;;;;;;;12.02;8.63;;;;;;;;;;6270705;28;25269;-81
2024/02/11 08:27:23;;;;;;;11.25;8.07;;;;;;;;;;6269403;28;24423;-80
2024/02/11 08:30:24;;;;;;;9.50;6.82;;;;;;;;;;6270842;28;24810;-82
2024/02/11 08:33:26;;;;;;;8.02;6.10;;;;;;;;;;6271047;28;24438;-81
2024/02/11 08:36:27;;;;;;;6.85;6.00;;;;;;;;;;6268738;28;24416;-84
2024/02/11 08:39:29;;;;;;;6.43;5.37;;;;;;;;;;6269266;28;24836;-83
2024/02/11 08:42:32;;;;;;;6.00;4.90;;;;;;;;;;6272546;28;24867;-83
2024/02/11 08:45:33;;;;;;;5.25;4.75;;;;;;;;;;6270944;28;24435;-84
2024/02/11 08:48:35;;;;;;;4.93;4.40;;;;;;;;;;6273257;28;24423;-82
2024/02/11 08:51:38;;;;;;;4.43;4.00;;;;;;;;;;6265608;28;24651;-83
2024/02/11 08:54:39;;;;;;;4.28;3.88;;;;;;;;;;6269709;28;24423;-82
2024/02/11 08:57:42;;;;;;;4.87;3.90;;;;;;;;;;6271213;28;24426;-83
2024/02/11 09:00:43;;;;;;;5.18;3.92;;;;;;;;;;6267048;28;24628;-81
2024/02/11 09:03:46;;;;;;;4.93;4.20;;;;;;;;;;6269874;28;24842;-81
2024/02/11 09:06:49;;;;;;;4.80;4.00;;;;;;;;;;6267802;28;24629;-83
2024/02/11 09:09:50;;;;;;;4.60;3.80;;;;;;;;;;6268324;28;24518;-83
2024/02/11 09:12:53;;;;;;;4.97;3.90;;;;;;;;;;6269644;28;24486;-82
2024/02/11 09:15:55;;;;;;;4.23;3.70;;;;;;;;;;6267473;28;24433;-82
2024/02/11 09:18:57;;;;;;;4.10;3.38;;;;;;;;;;6272348;28;24434;-81
2024/02/11 09:21:58;;;;;;;4.95;3.58;;;;;;;;;;6269373;28;24506;-81
2024/02/11 09:25:00;;;;;;;4.35;3.40;;;;;;;;;;6272440;28;24438;-81
2024/02/11 09:28:03;;;;;;;3.40;2.90;;;;;;;;;;6266577;28;24454;-83
2024/02/11 09:31:05;;;;;;;4.43;3.40;;;;;;;;;;6266412;28;24553;-82
2024/02/11 09:34:06;;;;;;;3.58;3.13;;;;;;;;;;6269735;28;24822;-82
2024/02/11 09:37:08;;;;;;;4.45;3.22;;;;;;;;;;6266578;28;24442;-82
2024/02/11 09:40:09;;;;;;;3.80;3.40;;;;;;;;;;6267664;28;24800;-83
2024/02/11 09:43:15;;;;;;;3.53;3.10;;;;;;;;;;6265765;28;24428;-81
2024/02/11 09:46:17;;;;;;;3.67;2.95;;;;;;;;;;6265264;28;24407;-82
2024/02/11 09:49:20;;;;;;;3.40;3.10;;;;;;;;;;6269913;28;24466;-81
2024/02/11 09:52:22;;;;;;;3.08;2.78;;;;;;;;;;6270750;28;24404;-81
2024/02/11 09:55:23;;;;;;;3.60;2.88;;;;;;;;;;6267398;28;25460;-80
2024/02/11 09:58:26;;;;;;;2.97;2.63;;;;;;;;;;6267024;28;24408;-81
2024/02/11 10:01:32;;;;;;;3.40;2.50;;;;;;;;;;6264941;28;24433;-82
2024/02/11 10:04:36;;;;;;;2.63;2.40;;;;;;;;;;6268177;28;24490;-82
2024/02/11 10:07:43;;;;;;;2.80;2.30;;;;;;;;;;6266403;28;24706;-83
2024/02/11 10:10:45;;;;;;;2.83;2.22;;;;;;;;;;6268455;28;24607;-82
2024/02/11 10:13:48;;;;;;;2.60;2.00;;;;;;;;;;6267214;28;24423;-82
2024/02/11 10:16:49;;;;;;;2.08;1.63;;;;;;;;;;6268582;28;24414;-81
2024/02/11 10:19:52;;;;;;;2.28;1.63;;;;;;;;;;6268752;28;24430;-83
2024/02/11 10:22:53;;;;;;;1.95;1.60;;;;;;;;;;6267421;28;24419;-83
2024/02/11 10:25:56;;;;;;;2.63;1.80;;;;;;;;;;6268475;28;24435;-82
2024/02/11 10:29:00;;;;;;;4.90;3.20;;;;;;;;;;6267620;28;24503;-83
2024/02/11 10:32:04;;;;;;;5.57;4.20;;;;;;;;;;6267653;28;24845;-83
2024/02/11 10:35:06;;;;;;;7.43;6.00;;;;;;;;;;6265431;28;24428;-82
2024/02/11 10:38:08;;;;;;;10.40;7.78;;;;;;;;;;6265632;28;24611;-82
2024/02/11 10:41:09;;;;;;;10.17;8.23;;;;;;;;;;6265959;28;24452;-83
2024/02/11 10:44:13;;;;;;;11.25;8.98;;;;;;;;;;6263484;28;24798;-82
2024/02/11 10:47:14;;;;;;;11.25;8.77;;;;;;;;;;6265091;28;24451;-82
2024/02/11 10:50:17;;;;;;;11.02;8.48;;;;;;;;;;6268803;28;24838;-82
2024/02/11 10:53:19;;;;;;;9.48;7.65;;;;;;;;;;6266551;28;24431;-82
2024/02/11 10:56:21;;;;;;;9.63;7.60;;;;;;;;;;6267391;28;24434;-83
2024/02/11 10:59:28;;;;;;;9.95;8.02;;;;;;;;;;6265664;28;24419;-83
2024/02/11 11:02:31;;;;;;;9.55;8.10;;;;;;;;;;6269538;28;24524;-83
2024/02/11 11:05:35;;;;;;;11.85;9.45;;;;;;;;;;6265447;28;24499;-82
2024/02/11 11:08:38;;;;;;;12.40;9.55;;;;;;;;;;6263232;28;24418;-83
2024/02/11 11:11:40;;;;;;;13.27;9.90;;;;;;;;;;6268811;28;24424;-84
2024/02/11 11:14:43;;;;;;;12.07;9.32;;;;;;;;;;6267706;28;24608;-83
2024/02/11 11:17:46;;;;;;;10.27;8.57;;;;;;;;;;6267169;28;24430;-82
2024/02/11 11:20:52;;;;;;;11.00;8.73;;;;;;;;;;6262329;28;24552;-82
2024/02/11 11:23:54;;;;;;;10.70;8.32;;;;;;;;;;6266477;28;24434;-81
2024/02/11 11:26:56;;;;;;;9.75;7.85;;;;;;;;;;6263731;28;24427;-82
2024/02/11 11:29:59;;;;;;;8.18;7.20;;;;;;;;;;6266185;28;24429;-82
2024/02/11 11:33:04;;;;;;;9.48;7.15;;;;;;;;;;6263956;28;24451;-82
2024/02/11 11:36:06;;;;;;;9.75;7.50;;;;;;;;;;6264112;28;24510;-83
2024/02/11 11:39:11;;;;;;;8.68;7.10;;;;;;;;;;6262858;28;24447;-84
2024/02/11 11:42:13;;;;;;;10.50;8.52;;;;;;;;;;6265202;28;24530;-82
2024/02/11 11:45:17;;;;;;;11.15;8.90;;;;;;;;;;6266582;28;24811;-83
2024/02/11 11:48:18;;;;;;;11.60;9.05;;;;;;;;;;6261785;28;24620;-85
2024/02/11 11:51:20;;;;;;;11.38;8.68;;;;;;;;;;6264647;28;24431;-82
2024/02/11 11:54:21;;;;;;;10.88;8.57;;;;;;;;;;6264659;28;24420;-83
2024/02/11 11:57:23;;;;;;;11.82;8.88;;;;;;;;;;6263454;28;24416;-82
2024/02/11 12:00:26;;;;;;;12.85;8.85;;;;;;;;;;6264703;28;24430;-82
2024/02/11 12:03:28;;;;;;;12.60;9.05;;;;;;;;;;6262370;28;24422;-82
2024/02/11 12:06:29;;;;;;;11.88;8.93;;;;;;;;;;6264210;28;24430;-84
2024/02/11 12:09:30;;;;;;;12.95;9.63;;;;;;;;;;6265189;28;24437;-83
2024/02/11 12:12:32;;;;;;;13.45;9.60;;;;;;;;;;6264742;28;24666;-81
2024/02/11 12:15:35;;;;;;;14.70;11.95;;;;;;;;;;6264131;28;24454;-81
2024/02/11 12:18:40;;;;;;;17.25;14.55;;;;;;;;;;6262556;28;24845;-81
2024/02/11 12:21:41;;;;;;;16.55;14.13;;;;;;;;;;6264161;28;24837;-83
2024/02/11 12:24:43;;;;;;;16.52;13.45;;;;;;;;;;6266063;28;24562;-82
2024/02/11 12:27:49;;;;;;;13.77;11.55;;;;;;;;;;6265339;28;24434;-83
2024/02/11 12:30:52;;;;;;;12.13;10.38;;;;;;;;;;6265890;28;24435;-83
2024/02/11 12:33:54;;;;;;;10.98;9.40;;;;;;;;;;6265380;28;24444;-83
2024/02/11 12:37:00;;;;;;;8.50;7.60;;;;;;;;;;6263514;28;24424;-84
2024/02/11 12:40:01;;;;;;;8.70;7.80;;;;;;;;;;6264367;28;25059;-82
2024/02/11 12:43:03;;;;;;;7.30;6.30;;;;;;;;;;6265607;28;24809;-83
2024/02/11 12:46:08;;;;;;;6.60;5.90;;;;;;;;;;6263805;28;24612;-82
2024/02/11 12:49:09;;;;;;;6.90;6.20;;;;;;;;;;6261899;28;24442;-84
2024/02/11 12:52:12;;;;;;;5.95;5.35;;;;;;;;;;6262695;28;24438;-82
2024/02/11 12:55:13;;;;;;;5.30;4.80;;;;;;;;;;6267355;28;24635;-82
2024/02/11 12:58:15;;;;;;;5.10;4.60;;;;;;;;;;6265708;28;24461;-85
2024/02/11 13:01:19;;;;;;;5.00;4.50;;;;;;;;;;6266155;28;24415;-85
2024/02/11 13:04:20;;;;;;;5.18;4.68;;;;;;;;;;6269386;28;24420;-85
2024/02/11 13:07:22;;;;;;;7.03;4.57;;;;;;;;;;6271283;28;24635;-83
2024/02/11 13:10:23;;;;;;;5.05;4.55;;;;;;;;;;6269963;28;24419;-85
2024/02/11 13:13:25;;;;;;;4.88;4.30;;;;;;;;;;6265598;28;24411;-84
2024/02/11 13:16:28;;;;;;;4.10;3.70;;;;;;;;;;6270665;28;24498;-83
2024/02/11 13:19:29;;;;;;;3.70;3.30;;;;;;;;;;6271180;28;24641;-81
2024/02/11 13:22:31;;;;;;;3.53;3.10;;;;;;;;;;6270223;28;24822;-82
2024/02/11 13:25:32;;;;;;;3.30;2.95;;;;;;;;;;6271983;28;24431;-83
2024/02/11 13:28:34;;;;;;;3.97;2.65;;;;;;;;;;6268723;28;24491;-84
2024/02/11 13:31:39;;;;;;;3.55;2.55;;;;;;;;;;6271357;28;24469;-83
2024/02/11 13:34:41;;;;;;;4.65;3.53;;;;;;;;;;6267613;28;24414;-83
2024/02/11 13:37:42;;;;;;;4.35;3.20;;;;;;;;;;6266517;28;24422;-83
2024/02/11 13:40:45;;;;;;;3.47;2.70;;;;;;;;;;6267478;28;24415;-82
2024/02/11 13:43:46;;;;;;;4.15;3.13;;;;;;;;;;6265563;28;24480;-83
2024/02/11 13:46:49;;;;;;;2.95;2.40;;;;;;;;;;6268905;28;24428;-82
2024/02/11 13:49:51;;;;;;;3.50;2.40;;;;;;;;;;6269383;28;24431;-83
2024/02/11 13:52:53;;;;;;;2.97;2.47;;;;;;;;;;6266359;28;24435;-83
2024/02/11 13:55:56;;;;;;;3.45;2.97;;;;;;;;;;6269116;28;24635;-82
2024/02/11 13:58:57;;;;;;;3.22;2.80;;;;;;;;;;6267477;28;24462;-83
2024/02/11 14:02:00;;;;;;;4.23;2.90;;;;;;;;;;6267177;28;24431;-83
2024/02/11 14:05:03;;;;;;;3.10;2.80;;;;;;;;;;6265842;28;24485;-83
2024/02/11 14:08:05;;;;;;;3.13;2.70;;;;;;;;;;6267262;28;24415;-83
2024/02/11 14:11:06;;;;;;;3.40;2.90;;;;;;;;;;6268375;28;24411;-83
2024/02/11 14:14:09;;;;;;;3.97;2.90;;;;;;;;;;6270377;28;24440;-83
2024/02/11 14:17:12;;;;;;;3.50;3.00;;;;;;;;;;6266141;28;24419;-83
2024/02/11 14:20:14;;;;;;;3.20;2.60;;;;;;;;;;6264096;28;24458;-84
2024/02/11 14:23:15;;;;;;;4.28;3.35;;;;;;;;;;6268835;28;24437;-83
2024/02/11 14:26:18;;;;;;;4.53;4.00;;;;;;;;;;6267173;28;24416;-83
2024/02/11 14:29:19;;;;;;;4.43;3.53;;;;;;;;;;6265807;28;24446;-82
2024/02/11 14:32:22;;;;;;;4.50;4.03;;;;;;;;;;6264974;28;24435;-82
2024/02/11 14:35:24;;;;;;;4.55;3.70;;;;;;;;;;6266470;28;24419;-82
2024/02/11 14:38:28;;;;;;;4.28;3.83;;;;;;;;;;6265613;28;24826;-82
2024/02/11 14:41:30;;;;;;;4.47;3.40;;;;;;;;;;6267601;28;24497;-82
2024/02/11 14:44:32;;;;;;;3.83;3.28;;;;;;;;;;6265515;28;24778;-83
2024/02/11 14:47:35;;;;;;;3.55;3.13;;;;;;;;;;6265002;28;24449;-81
2024/02/11 14:50:38;;;;;;;3.72;3.20;;;;;;;;;;6267853;28;24420;-83
2024/02/11 14:53:39;;;;;;;4.07;2.85;;;;;;;;;;6266036;28;24462;-81
2024/02/11 14:56:43;;;;;;;3.63;2.63;;;;;;;;;;6265417;28;24446;-82
2024/02/11 14:59:45;;;;;;;4.32;3.67;;;;;;;;;;6266684;28;24424;-82
2024/02/11 15:02:48;;;;;;;36.10;21.02;;;;;;;;;;6270279;28;24510;-84
2024/02/11 15:05:49;;;;;;;15.90;10.17;;;;;;;;;;6267964;28;24438;-85
2024/02/11 15:08:52;;;;;;;63.50;33.47;;;;;;;;;;6268564;28;24454;-84
2024/02/11 15:11:53;;;;;;;34.13;18.20;;;;;;;;;;6268576;28;24491;-85
2024/02/11 15:14:55;;;;;;;10.27;6.47;;;;;;;;;;6268908;28;24439;-81
2024/02/11 15:17:58;;;;;;;5.35;3.85;;;;;;;;;;6265368;28;24407;-81
2024/02/11 15:20:59;;;;;;;4.28;3.60;;;;;;;;;;6266072;28;24438;-81
2024/02/11 15:24:01;;;;;;;3.88;3.47;;;;;;;;;;6265789;28;24416;-81
2024/02/11 15:27:02;;;;;;;3.60;3.30;;;;;;;;;;6266004;28;24418;-82
2024/02/11 15:30:04;;;;;;;3.53;3.23;;;;;;;;;;6263828;28;24461;-82
2024/02/11 15:33:12;;;;;;;3.72;3.22;;;;;;;;;;6265887;28;24427;-81
2024/02/11 15:36:13;;;;;;;4.50;3.80;;;;;;;;;;6266497;28;24462;-82
2024/02/11 15:39:19;;;;;;;4.13;3.70;;;;;;;;;;6265087;28;24549;-81
2024/02/11 15:42:23;;;;;;;4.20;3.80;;;;;;;;;;6265012;28;24604;-81
2024/02/11 15:45:25;;;;;;;4.37;3.80;;;;;;;;;;6264520;28;24803;-81
2024/02/11 15:48:28;;;;;;;4.30;3.60;;;;;;;;;;6266746;28;24423;-80
2024/02/11 15:51:29;;;;;;;4.65;3.83;;;;;;;;;;6265106;28;24439;-81
2024/02/11 15:54:31;;;;;;;4.68;4.15;;;;;;;;;;6263933;28;24439;-81
2024/02/11 15:57:32;;;;;;;4.97;4.43;;;;;;;;;;6267039;28;24438;-82
2024/02/11 16:00:34;;;;;;;5.60;4.70;;;;;;;;;;6262534;28;24434;-81
2024/02/11 16:03:42;;;;;;;5.70;5.20;;;;;;;;;;6266360;28;24896;-81
2024/02/11 16:06:43;;;;;;;5.57;5.07;;;;;;;;;;6262547;28;24438;-81
2024/02/11 16:09:46;;;;;;;6.25;5.65;;;;;;;;;;6262490;28;24438;-84
2024/02/11 16:12:48;;;;;;;6.45;5.85;;;;;;;;;;6261839;28;24830;-83
2024/02/11 16:15:49;;;;;;;6.63;6.03;;;;;;;;;;6262018;28;24443;-82
2024/02/11 16:18:52;;;;;;;6.20;5.60;;;;;;;;;;6264408;28;25091;-81
2024/02/11 16:21:57;;;;;;;6.45;5.60;;;;;;;;;;6266500;28;24439;-81
2024/02/11 16:24:59;;;;;;;6.03;5.43;;;;;;;;;;6263598;28;24419;-81
2024/02/11 16:28:00;;;;;;;6.50;5.50;;;;;;;;;;6262784;28;24430;-81
2024/02/11 16:31:02;;;;;;;5.43;4.93;;;;;;;;;;6261611;28;24460;-81
2024/02/11 16:34:05;;;;;;;5.90;5.30;;;;;;;;;;6265021;28;24833;-85
2024/02/11 16:37:07;;;;;;;5.87;5.27;;;;;;;;;;6268490;28;24819;-82
2024/02/11 16:40:09;;;;;;;5.70;5.00;;;;;;;;;;6267373;28;24674;-83
2024/02/11 16:43:11;;;;;;;7.05;5.70;;;;;;;;;;6268493;28;24822;-82
2024/02/11 16:46:12;;;;;;;5.80;5.00;;;;;;;;;;6269198;28;24632;-83
2024/02/11 16:49:15;;;;;;;6.07;4.97;;;;;;;;;;6264647;28;24627;-82
2024/02/11 16:52:17;;;;;;;6.38;4.97;;;;;;;;;;6267702;28;24419;-82
2024/02/11 16:55:18;;;;;;;5.88;4.70;;;;;;;;;;6267503;28;24439;-82
2024/02/11 16:58:19;;;;;;;6.10;4.75;;;;;;;;;;6268334;28;24632;-81
2024/02/11 17:01:21;;;;;;;5.00;4.47;;;;;;;;;;6269200;28;24640;-81
2024/02/11 17:04:24;;;;;;;5.80;5.07;;;;;;;;;;6270938;28;24611;-81
2024/02/11 17:07:26;;;;;;;5.72;5.10;;;;;;;;;;6270809;28;24404;-81
2024/02/11 17:10:28;;;;;;;5.75;4.78;;;;;;;;;;6267368;28;24979;-82
2024/02/11 17:13:30;;;;;;;4.90;4.27;;;;;;;;;;6268652;28;24943;-81
2024/02/11 17:16:33;;;;;;;5.88;4.40;;;;;;;;;;6266781;28;24670;-82
2024/02/11 17:19:35;;;;;;;6.50;5.15;;;;;;;;;;6269921;28;24844;-81
2024/02/11 17:22:37;;;;;;;5.70;4.75;;;;;;;;;;6269102;28;25106;-81
2024/02/11 17:25:40;;;;;;;5.78;4.30;;;;;;;;;;6268592;28;25148;-81
2024/02/11 17:28:44;;;;;;;5.50;4.75;;;;;;;;;;6269514;28;24423;-81
2024/02/11 17:31:46;;;;;;;6.00;4.20;;;;;;;;;;6269883;28;24427;-82
2024/02/11 17:34:50;;;;;;;5.53;3.80;;;;;;;;;;6269645;28;24438;-82
2024/02/11 17:37:51;;;;;;;4.70;3.70;;;;;;;;;;6268403;28;24554;-82
2024/02/11 17:40:53;;;;;;;4.47;3.40;;;;;;;;;;6266841;28;24423;-82
2024/02/11 17:43:56;;;;;;;3.97;3.20;;;;;;;;;;6268870;28;24430;-83
2024/02/11 17:46:58;;;;;;;5.07;3.40;;;;;;;;;;6266789;28;24427;-82
2024/02/11 17:50:10;;;;;;;4.80;3.20;;;;;;;;;;6265966;28;26114;-83
2024/02/11 17:53:12;;;;;;;4.07;3.20;;;;;;;;;;6265121;28;24443;-82
2024/02/11 17:56:13;;;;;;;3.97;3.00;;;;;;;;;;6266230;28;24434;-82
2024/02/11 17:59:15;;;;;;;4.55;3.53;;;;;;;;;;6267728;28;24985;-83
2024/02/11 18:02:17;;;;;;;3.20;2.90;;;;;;;;;;6270072;28;24424;-83
2024/02/11 18:05:23;;;;;;;3.80;2.97;;;;;;;;;;6267738;28;24427;-82
2024/02/11 18:08:25;;;;;;;3.90;3.10;;;;;;;;;;6267126;28;24420;-83